aviador You're here:

CYWE Decoded Metar

in
Report Time2018-07-23 15:00:00
UTC Time2018-07-23 15:47:18
Flight Rules vfr VFR
WindCalm
Visibility9999 m
Phenomena:N/A
Clouds:N/A
Expected CloudBase > 2,000 ft AGL from Temp-Dew spread
CeilingNone
Temp14°C
Dew Point09°C (72% RH)
AAT13.8°C
QNH1029 hPa
Raw Report
METAR CYWE 231500Z AUTO 00000KT 9SM CLR 14/09 A3040 RMK SLP310=

Extra information for CYWE:More info

Social comments